IBE079 LEZL-LPMA
Flight info
| Callsign | IBE079 |
|---|---|
| Flight time | 1h 53m |
| Altitude | 37000 |
| Route | ONUBA N747 MINTA DCT NARTA DCT GALPA DCT RULET DCT RAKUN |
| Aircraft | A20N/M-SDE3FGHIRWY/LB1 |
Departure
| Time | 2026-05-05 14:53 |
|---|---|
| Airport | Seville Airport (LEZL) |
Arrival
| Time | 2026-05-05 16:46 |
|---|---|
| Airport | Cristiano Ronaldo International Airport (LPMA) |
| Time | Latitude | Longitude | Altitude | Speed | Heading |
|---|---|---|---|---|---|
| 2026-05-05 14:39 | 37.42245 | -5.89914 | 93 ft | 0 kts | 314° |
| 2026-05-05 14:43 | 37.42234 | -5.89901 | 94 ft | 4 kts | 317° |
| 2026-05-05 14:43 | 37.42214 | -5.89879 | 91 ft | 4 kts | 327° |
| 2026-05-05 14:43 | 37.42190 | -5.89865 | 94 ft | 4 kts | 360° |
| 2026-05-05 14:43 | 37.42176 | -5.89869 | 93 ft | 0 kts | 44° |
| 2026-05-05 14:46 | 37.42176 | -5.89868 | 94 ft | 0 kts | 44° |
| 2026-05-05 14:46 | 37.42221 | -5.89813 | 93 ft | 16 kts | 44° |
| 2026-05-05 14:46 | 37.42254 | -5.89712 | 95 ft | 12 kts | 121° |
| 2026-05-05 14:46 | 37.42203 | -5.89641 | 94 ft | 10 kts | 134° |
| 2026-05-05 14:47 | 37.42142 | -5.89563 | 96 ft | 16 kts | 135° |
| 2026-05-05 14:47 | 37.42071 | -5.89473 | 98 ft | 13 kts | 135° |
| 2026-05-05 14:47 | 37.42010 | -5.89394 | 99 ft | 13 kts | 134° |
| 2026-05-05 14:47 | 37.41983 | -5.89286 | 99 ft | 14 kts | 91° |
| 2026-05-05 14:48 | 37.41983 | -5.89173 | 100 ft | 14 kts | 90° |
| 2026-05-05 14:48 | 37.41984 | -5.89005 | 101 ft | 22 kts | 89° |
| 2026-05-05 14:48 | 37.41986 | -5.88825 | 102 ft | 19 kts | 91° |
| 2026-05-05 14:48 | 37.41985 | -5.88669 | 103 ft | 17 kts | 90° |
| 2026-05-05 14:49 | 37.41986 | -5.88535 | 104 ft | 14 kts | 89° |
| 2026-05-05 14:49 | 37.41986 | -5.88403 | 105 ft | 19 kts | 90° |
| 2026-05-05 14:49 | 37.41986 | -5.88252 | 106 ft | 16 kts | 90° |
| 2026-05-05 14:49 | 37.41987 | -5.88122 | 106 ft | 14 kts | 89° |
| 2026-05-05 14:50 | 37.41987 | -5.87999 | 107 ft | 15 kts | 90° |
| 2026-05-05 14:50 | 37.41988 | -5.87877 | 107 ft | 13 kts | 89° |
| 2026-05-05 14:50 | 37.41989 | -5.87742 | 108 ft | 20 kts | 89° |
| 2026-05-05 14:50 | 37.41988 | -5.87581 | 109 ft | 17 kts | 91° |
| 2026-05-05 14:51 | 37.41951 | -5.87461 | 112 ft | 12 kts | 128° |
| 2026-05-05 14:51 | 37.41904 | -5.87428 | 115 ft | 0 kts | 168° |
| 2026-05-05 14:52 | 37.41821 | -5.87430 | 118 ft | 15 kts | 207° |
| 2026-05-05 14:52 | 37.41799 | -5.87567 | 115 ft | 22 kts | 270° |
| 2026-05-05 14:52 | 37.41799 | -5.88062 | 108 ft | 91 kts | 269° |
| 2026-05-05 14:52 | 37.41795 | -5.89101 | 102 ft | 145 kts | 270° |
| 2026-05-05 14:53 | 37.41787 | -5.90526 | 305 ft | 171 kts | 270° |
| 2026-05-05 14:53 | 37.41888 | -5.92017 | 951 ft | 171 kts | 281° |
| 2026-05-05 14:53 | 37.42132 | -5.93474 | 1730 ft | 169 kts | 283° |
| 2026-05-05 14:53 | 37.42407 | -5.94973 | 2294 ft | 187 kts | 284° |
| 2026-05-05 14:54 | 37.42710 | -5.96659 | 2668 ft | 208 kts | 284° |
| 2026-05-05 14:54 | 37.43036 | -5.98530 | 3106 ft | 230 kts | 283° |
| 2026-05-05 14:54 | 37.43375 | -6.00551 | 3738 ft | 244 kts | 283° |
| 2026-05-05 14:54 | 37.43722 | -6.02680 | 4482 ft | 251 kts | 282° |
| 2026-05-05 14:55 | 37.44072 | -6.04864 | 5373 ft | 256 kts | 282° |
| 2026-05-05 14:55 | 37.44420 | -6.07073 | 6241 ft | 259 kts | 282° |
| 2026-05-05 14:55 | 37.44556 | -6.09347 | 7054 ft | 265 kts | 264° |
| 2026-05-05 14:55 | 37.43990 | -6.11570 | 7905 ft | 271 kts | 242° |
| 2026-05-05 14:56 | 37.42757 | -6.13377 | 8712 ft | 279 kts | 219° |
| 2026-05-05 14:56 | 37.41132 | -6.14736 | 9539 ft | 281 kts | 216° |
| 2026-05-05 14:56 | 37.39483 | -6.16088 | 10327 ft | 283 kts | 219° |
| 2026-05-05 14:56 | 37.37928 | -6.17610 | 11080 ft | 284 kts | 223° |
| 2026-05-05 14:57 | 37.36422 | -6.19238 | 11807 ft | 285 kts | 229° |
| 2026-05-05 14:57 | 37.35153 | -6.21182 | 12557 ft | 285 kts | 238° |
| 2026-05-05 14:57 | 37.34106 | -6.23300 | 13286 ft | 287 kts | 244° |
| 2026-05-05 14:57 | 37.33252 | -6.25656 | 13505 ft | 307 kts | 253° |
| 2026-05-05 14:58 | 37.32694 | -6.28336 | 13650 ft | 327 kts | 259° |
| 2026-05-05 14:58 | 37.32203 | -6.31189 | 13979 ft | 340 kts | 259° |
| 2026-05-05 14:58 | 37.31708 | -6.34118 | 14533 ft | 345 kts | 259° |
| 2026-05-05 14:58 | 37.31214 | -6.37077 | 15136 ft | 348 kts | 259° |
| 2026-05-05 14:59 | 37.30719 | -6.40060 | 15749 ft | 351 kts | 259° |
| 2026-05-05 14:59 | 37.30217 | -6.43073 | 16347 ft | 354 kts | 259° |
| 2026-05-05 14:59 | 37.29708 | -6.46107 | 16931 ft | 357 kts | 259° |
| 2026-05-05 14:59 | 37.29192 | -6.49175 | 17527 ft | 360 kts | 259° |
| 2026-05-05 15:00 | 37.28674 | -6.52253 | 18104 ft | 363 kts | 259° |
| 2026-05-05 15:00 | 37.28326 | -6.54317 | 18449 ft | 365 kts | 259° |
| 2026-05-05 15:00 | 37.27620 | -6.58499 | 19128 ft | 368 kts | 259° |
| 2026-05-05 15:00 | 37.27092 | -6.61654 | 19653 ft | 370 kts | 259° |
| 2026-05-05 15:01 | 37.26563 | -6.64825 | 20155 ft | 372 kts | 259° |
| 2026-05-05 15:01 | 37.26029 | -6.68008 | 20659 ft | 374 kts | 259° |
| 2026-05-05 15:01 | 37.25490 | -6.71199 | 21163 ft | 375 kts | 259° |
| 2026-05-05 15:01 | 37.24943 | -6.74419 | 21659 ft | 377 kts | 259° |
| 2026-05-05 15:02 | 37.24388 | -6.77638 | 22145 ft | 379 kts | 258° |
| 2026-05-05 15:02 | 37.23803 | -6.80873 | 22619 ft | 381 kts | 258° |
| 2026-05-05 15:02 | 37.23195 | -6.84121 | 23088 ft | 383 kts | 257° |
| 2026-05-05 15:02 | 37.22574 | -6.87383 | 23544 ft | 385 kts | 257° |
| 2026-05-05 15:03 | 37.21950 | -6.90661 | 23937 ft | 387 kts | 257° |
| 2026-05-05 15:03 | 37.21325 | -6.93955 | 24331 ft | 388 kts | 257° |
| 2026-05-05 15:03 | 37.20699 | -6.97254 | 24736 ft | 389 kts | 257° |
| 2026-05-05 15:03 | 37.20073 | -7.00553 | 25120 ft | 390 kts | 257° |
| 2026-05-05 15:04 | 37.19446 | -7.03874 | 25499 ft | 392 kts | 257° |
| 2026-05-05 15:04 | 37.18820 | -7.07203 | 25866 ft | 393 kts | 257° |
| 2026-05-05 15:04 | 37.18394 | -7.09461 | 26108 ft | 394 kts | 257° |
| 2026-05-05 15:04 | 37.17760 | -7.12806 | 26471 ft | 395 kts | 257° |
| 2026-05-05 15:05 | 37.16480 | -7.19518 | 27197 ft | 397 kts | 257° |
| 2026-05-05 15:05 | 37.15836 | -7.22897 | 27537 ft | 399 kts | 257° |
| 2026-05-05 15:05 | 37.15193 | -7.26277 | 27887 ft | 400 kts | 257° |
| 2026-05-05 15:06 | 37.14547 | -7.29677 | 28225 ft | 401 kts | 257° |
| 2026-05-05 15:06 | 37.13895 | -7.33081 | 28530 ft | 403 kts | 257° |
| 2026-05-05 15:06 | 37.13240 | -7.36500 | 28864 ft | 404 kts | 257° |
| 2026-05-05 15:06 | 37.12584 | -7.39926 | 29166 ft | 406 kts | 257° |
| 2026-05-05 15:07 | 37.11943 | -7.43352 | 29463 ft | 407 kts | 257° |
| 2026-05-05 15:07 | 37.11312 | -7.46807 | 29751 ft | 408 kts | 257° |
| 2026-05-05 15:07 | 37.10682 | -7.50284 | 30036 ft | 410 kts | 257° |
| 2026-05-05 15:07 | 37.10051 | -7.53767 | 30287 ft | 411 kts | 257° |
| 2026-05-05 15:08 | 37.09410 | -7.57283 | 30533 ft | 413 kts | 257° |
| 2026-05-05 15:08 | 37.08766 | -7.60787 | 30820 ft | 412 kts | 257° |
| 2026-05-05 15:08 | 37.08118 | -7.64274 | 31147 ft | 411 kts | 257° |
| 2026-05-05 15:08 | 37.07469 | -7.67753 | 31473 ft | 410 kts | 257° |
| 2026-05-05 15:09 | 37.06825 | -7.71216 | 31785 ft | 409 kts | 257° |
| 2026-05-05 15:09 | 37.06178 | -7.74704 | 32122 ft | 408 kts | 257° |
| 2026-05-05 15:09 | 37.05537 | -7.78157 | 32445 ft | 408 kts | 257° |
| 2026-05-05 15:09 | 37.04892 | -7.81612 | 32769 ft | 407 kts | 257° |
| 2026-05-05 15:10 | 37.04246 | -7.85055 | 33103 ft | 406 kts | 257° |
| 2026-05-05 15:10 | 37.03603 | -7.88483 | 33409 ft | 405 kts | 257° |
| 2026-05-05 15:10 | 37.02956 | -7.91929 | 33734 ft | 404 kts | 257° |
| 2026-05-05 15:10 | 37.02315 | -7.95335 | 34048 ft | 404 kts | 257° |
| 2026-05-05 15:11 | 37.01667 | -7.98762 | 34314 ft | 403 kts | 257° |
| 2026-05-05 15:11 | 37.01024 | -8.02162 | 34581 ft | 402 kts | 257° |
| 2026-05-05 15:11 | 37.00380 | -8.05566 | 34826 ft | 402 kts | 257° |
| 2026-05-05 15:11 | 36.99736 | -8.08970 | 35062 ft | 402 kts | 257° |
| 2026-05-05 15:12 | 36.99091 | -8.12373 | 35290 ft | 401 kts | 257° |
| 2026-05-05 15:12 | 36.98446 | -8.15771 | 35525 ft | 401 kts | 257° |
| 2026-05-05 15:12 | 36.97794 | -8.19194 | 35746 ft | 401 kts | 257° |
| 2026-05-05 15:12 | 36.97143 | -8.22592 | 35956 ft | 401 kts | 257° |
| 2026-05-05 15:13 | 36.96502 | -8.25935 | 36167 ft | 401 kts | 257° |
| 2026-05-05 15:13 | 36.95854 | -8.29323 | 36361 ft | 400 kts | 257° |
| 2026-05-05 15:13 | 36.95209 | -8.32706 | 36579 ft | 400 kts | 257° |
| 2026-05-05 15:13 | 36.94561 | -8.36092 | 36765 ft | 400 kts | 257° |
| 2026-05-05 15:14 | 36.93904 | -8.39507 | 36970 ft | 400 kts | 257° |
| 2026-05-05 15:14 | 36.92604 | -8.46260 | 37073 ft | 400 kts | 257° |
| 2026-05-05 15:15 | 36.91298 | -8.53020 | 37076 ft | 400 kts | 257° |
| 2026-05-05 15:15 | 36.89995 | -8.59766 | 37083 ft | 400 kts | 257° |
| 2026-05-05 15:16 | 36.88682 | -8.66521 | 37089 ft | 400 kts | 256° |
| 2026-05-05 15:16 | 36.87357 | -8.73280 | 37089 ft | 400 kts | 256° |
| 2026-05-05 15:17 | 36.86032 | -8.80038 | 37089 ft | 400 kts | 256° |
| 2026-05-05 15:17 | 36.84709 | -8.86795 | 37091 ft | 401 kts | 256° |
| 2026-05-05 15:18 | 36.83373 | -8.93553 | 37096 ft | 401 kts | 256° |
| 2026-05-05 15:18 | 36.82032 | -9.00317 | 37102 ft | 401 kts | 256° |
| 2026-05-05 15:19 | 36.80693 | -9.07080 | 37104 ft | 402 kts | 256° |
| 2026-05-05 15:19 | 36.79351 | -9.13844 | 37108 ft | 402 kts | 256° |
| 2026-05-05 15:20 | 36.78005 | -9.20613 | 37109 ft | 402 kts | 256° |
| 2026-05-05 15:20 | 36.76652 | -9.27378 | 37112 ft | 402 kts | 256° |
| 2026-05-05 15:21 | 36.75287 | -9.34159 | 37112 ft | 403 kts | 256° |
| 2026-05-05 15:21 | 36.73911 | -9.40977 | 37120 ft | 403 kts | 256° |
| 2026-05-05 15:22 | 36.72536 | -9.47749 | 37120 ft | 403 kts | 256° |
| 2026-05-05 15:22 | 36.71157 | -9.54527 | 37121 ft | 404 kts | 256° |
| 2026-05-05 15:23 | 36.69780 | -9.61315 | 37127 ft | 404 kts | 256° |
| 2026-05-05 15:23 | 36.68396 | -9.68098 | 37129 ft | 404 kts | 256° |
| 2026-05-05 15:24 | 36.67003 | -9.74890 | 37132 ft | 405 kts | 256° |
| 2026-05-05 15:24 | 36.65608 | -9.81686 | 37133 ft | 405 kts | 256° |
| 2026-05-05 15:25 | 36.64212 | -9.88476 | 37132 ft | 405 kts | 256° |
| 2026-05-05 15:25 | 36.62815 | -9.95260 | 37134 ft | 405 kts | 256° |
| 2026-05-05 15:26 | 36.61407 | -10.02060 | 37136 ft | 405 kts | 256° |
| 2026-05-05 15:26 | 36.59987 | -10.08847 | 37137 ft | 405 kts | 256° |
| 2026-05-05 15:27 | 36.58567 | -10.15649 | 37140 ft | 406 kts | 256° |
| 2026-05-05 15:27 | 36.57148 | -10.22439 | 37137 ft | 406 kts | 256° |
| 2026-05-05 15:28 | 36.55718 | -10.29232 | 37141 ft | 406 kts | 256° |
| 2026-05-05 15:28 | 36.54293 | -10.36019 | 37144 ft | 406 kts | 256° |
| 2026-05-05 15:29 | 36.52853 | -10.42852 | 37146 ft | 406 kts | 256° |
| 2026-05-05 15:29 | 36.51413 | -10.49648 | 37150 ft | 406 kts | 255° |
| 2026-05-05 15:30 | 36.49967 | -10.56431 | 37153 ft | 406 kts | 255° |
| 2026-05-05 15:30 | 36.48521 | -10.63203 | 37148 ft | 406 kts | 255° |
| 2026-05-05 15:31 | 36.47069 | -10.70000 | 37150 ft | 406 kts | 255° |
| 2026-05-05 15:31 | 36.45618 | -10.76777 | 37152 ft | 406 kts | 255° |
| 2026-05-05 15:32 | 36.44156 | -10.83566 | 37149 ft | 406 kts | 255° |
| 2026-05-05 15:32 | 36.42694 | -10.90332 | 37148 ft | 406 kts | 255° |
| 2026-05-05 15:33 | 36.41226 | -10.97119 | 37150 ft | 407 kts | 255° |
| 2026-05-05 15:33 | 36.39758 | -11.03901 | 37151 ft | 407 kts | 255° |
| 2026-05-05 15:34 | 36.38289 | -11.10677 | 37152 ft | 407 kts | 255° |
| 2026-05-05 15:34 | 36.36809 | -11.17448 | 37151 ft | 407 kts | 255° |
| 2026-05-05 15:35 | 36.35326 | -11.24232 | 37152 ft | 407 kts | 255° |
| 2026-05-05 15:35 | 36.33836 | -11.31007 | 37154 ft | 408 kts | 255° |
| 2026-05-05 15:36 | 36.32336 | -11.37785 | 37156 ft | 408 kts | 255° |
| 2026-05-05 15:36 | 36.30834 | -11.44580 | 37158 ft | 408 kts | 255° |
| 2026-05-05 15:37 | 36.29577 | -11.50251 | 37156 ft | 408 kts | 255° |
| 2026-05-05 15:37 | 36.28077 | -11.57035 | 37163 ft | 408 kts | 255° |
| 2026-05-05 15:38 | 36.26573 | -11.63804 | 37158 ft | 408 kts | 255° |
| 2026-05-05 15:38 | 36.25057 | -11.70586 | 37162 ft | 408 kts | 255° |
| 2026-05-05 15:39 | 36.23534 | -11.77359 | 37163 ft | 408 kts | 255° |
| 2026-05-05 15:39 | 36.22016 | -11.84125 | 37170 ft | 408 kts | 255° |
| 2026-05-05 15:40 | 36.20495 | -11.90904 | 37166 ft | 408 kts | 255° |
| 2026-05-05 15:40 | 36.18962 | -11.97669 | 37168 ft | 408 kts | 255° |
| 2026-05-05 15:41 | 36.17423 | -12.04437 | 37166 ft | 409 kts | 255° |
| 2026-05-05 15:41 | 36.15883 | -12.11213 | 37168 ft | 409 kts | 255° |
| 2026-05-05 15:42 | 36.14344 | -12.17977 | 37180 ft | 409 kts | 255° |
| 2026-05-05 15:42 | 36.12803 | -12.24750 | 37180 ft | 409 kts | 255° |
| 2026-05-05 15:43 | 36.11241 | -12.31556 | 37176 ft | 408 kts | 255° |
| 2026-05-05 15:43 | 36.09687 | -12.38307 | 37178 ft | 408 kts | 254° |
| 2026-05-05 15:44 | 36.08126 | -12.45045 | 37174 ft | 408 kts | 254° |
| 2026-05-05 15:44 | 36.06562 | -12.51793 | 37181 ft | 408 kts | 252° |
| 2026-05-05 15:45 | 36.03941 | -12.58004 | 37177 ft | 411 kts | 233° |
| 2026-05-05 15:45 | 36.00107 | -12.63259 | 37171 ft | 412 kts | 230° |
| 2026-05-05 15:46 | 35.96234 | -12.68488 | 37170 ft | 413 kts | 230° |
| 2026-05-05 15:46 | 35.92360 | -12.73711 | 37177 ft | 413 kts | 230° |
| 2026-05-05 15:47 | 35.88484 | -12.78933 | 37175 ft | 413 kts | 230° |
| 2026-05-05 15:47 | 35.84596 | -12.84153 | 37171 ft | 413 kts | 230° |
| 2026-05-05 15:48 | 35.80703 | -12.89368 | 37174 ft | 413 kts | 230° |
| 2026-05-05 15:48 | 35.76810 | -12.94570 | 37175 ft | 413 kts | 230° |
| 2026-05-05 15:49 | 35.72919 | -12.99778 | 37176 ft | 413 kts | 230° |
| 2026-05-05 15:49 | 35.69033 | -13.04971 | 37168 ft | 413 kts | 230° |
| 2026-05-05 15:50 | 35.65138 | -13.10163 | 37174 ft | 413 kts | 229° |
| 2026-05-05 15:50 | 35.61212 | -13.15376 | 37168 ft | 413 kts | 229° |
| 2026-05-05 15:51 | 35.57309 | -13.20553 | 37165 ft | 413 kts | 229° |
| 2026-05-05 15:51 | 35.53419 | -13.25728 | 37167 ft | 413 kts | 229° |
| 2026-05-05 15:52 | 35.49512 | -13.30907 | 37175 ft | 413 kts | 229° |
| 2026-05-05 15:52 | 35.45604 | -13.36079 | 37175 ft | 414 kts | 229° |
| 2026-05-05 15:53 | 35.41680 | -13.41252 | 37177 ft | 414 kts | 229° |
| 2026-05-05 15:53 | 35.37758 | -13.46413 | 37175 ft | 414 kts | 229° |
| 2026-05-05 15:54 | 35.33832 | -13.51577 | 37176 ft | 414 kts | 229° |
| 2026-05-05 15:54 | 35.29904 | -13.56748 | 37173 ft | 414 kts | 229° |
| 2026-05-05 15:55 | 35.25984 | -13.61898 | 37171 ft | 414 kts | 229° |
| 2026-05-05 15:55 | 35.22049 | -13.67039 | 37168 ft | 414 kts | 229° |
| 2026-05-05 15:56 | 35.18119 | -13.72176 | 37168 ft | 414 kts | 229° |
| 2026-05-05 15:56 | 35.14189 | -13.77316 | 37168 ft | 414 kts | 229° |
| 2026-05-05 15:57 | 35.10245 | -13.82460 | 37163 ft | 414 kts | 229° |
| 2026-05-05 15:57 | 35.06297 | -13.87591 | 37166 ft | 415 kts | 229° |
| 2026-05-05 15:58 | 35.02347 | -13.92730 | 37170 ft | 415 kts | 229° |
| 2026-05-05 15:58 | 34.98365 | -13.97896 | 37173 ft | 416 kts | 229° |
| 2026-05-05 15:59 | 34.94403 | -14.03036 | 37174 ft | 416 kts | 229° |
| 2026-05-05 15:59 | 34.90433 | -14.08165 | 37172 ft | 416 kts | 228° |
| 2026-05-05 16:00 | 34.86462 | -14.13297 | 37166 ft | 416 kts | 228° |
| 2026-05-05 16:00 | 34.82504 | -14.18417 | 37173 ft | 415 kts | 228° |
| 2026-05-05 16:01 | 34.78542 | -14.23529 | 37173 ft | 415 kts | 228° |
| 2026-05-05 16:01 | 34.74569 | -14.28643 | 37164 ft | 416 kts | 228° |
| 2026-05-05 16:02 | 34.70598 | -14.33751 | 37176 ft | 416 kts | 228° |
| 2026-05-05 16:02 | 34.66613 | -14.38847 | 37164 ft | 416 kts | 228° |
| 2026-05-05 16:03 | 34.62626 | -14.43937 | 37161 ft | 415 kts | 228° |
| 2026-05-05 16:03 | 34.58646 | -14.49025 | 37165 ft | 416 kts | 228° |
| 2026-05-05 16:04 | 34.54666 | -14.54114 | 37161 ft | 416 kts | 228° |
| 2026-05-05 16:04 | 34.50683 | -14.59195 | 37162 ft | 416 kts | 228° |
| 2026-05-05 16:05 | 34.46699 | -14.64270 | 37161 ft | 416 kts | 228° |
| 2026-05-05 16:05 | 34.42710 | -14.69344 | 37164 ft | 415 kts | 228° |
| 2026-05-05 16:06 | 34.38693 | -14.74442 | 37154 ft | 415 kts | 228° |
| 2026-05-05 16:06 | 34.34707 | -14.79491 | 37168 ft | 415 kts | 228° |
| 2026-05-05 16:07 | 34.30735 | -14.84520 | 37166 ft | 415 kts | 228° |
| 2026-05-05 16:07 | 34.26716 | -14.89596 | 37167 ft | 415 kts | 228° |
| 2026-05-05 16:08 | 34.22721 | -14.94641 | 37162 ft | 415 kts | 228° |
| 2026-05-05 16:08 | 34.18731 | -14.99667 | 37164 ft | 415 kts | 228° |
| 2026-05-05 16:09 | 34.14733 | -15.04693 | 37159 ft | 414 kts | 228° |
| 2026-05-05 16:09 | 34.10741 | -15.09711 | 37158 ft | 414 kts | 228° |
| 2026-05-05 16:10 | 34.06749 | -15.14724 | 37158 ft | 414 kts | 228° |
| 2026-05-05 16:10 | 34.02751 | -15.19729 | 37158 ft | 414 kts | 228° |
| 2026-05-05 16:11 | 33.99394 | -15.23916 | 37157 ft | 414 kts | 228° |
| 2026-05-05 16:12 | 33.91388 | -15.33906 | 37160 ft | 414 kts | 228° |
| 2026-05-05 16:13 | 33.81384 | -15.46385 | 37170 ft | 415 kts | 228° |
| 2026-05-05 16:13 | 33.77364 | -15.51360 | 37168 ft | 414 kts | 227° |
| 2026-05-05 16:14 | 33.69357 | -15.61268 | 37086 ft | 413 kts | 228° |
| 2026-05-05 16:15 | 33.65283 | -15.66313 | 35145 ft | 428 kts | 228° |
| 2026-05-05 16:15 | 33.61099 | -15.71483 | 33382 ft | 434 kts | 228° |
| 2026-05-05 16:16 | 33.56887 | -15.76667 | 31839 ft | 433 kts | 227° |
| 2026-05-05 16:16 | 33.52678 | -15.81765 | 30572 ft | 428 kts | 226° |
| 2026-05-05 16:17 | 33.48436 | -15.86699 | 29192 ft | 421 kts | 226° |
| 2026-05-05 16:17 | 33.46343 | -15.89120 | 28524 ft | 417 kts | 226° |
| 2026-05-05 16:18 | 33.42214 | -15.93925 | 27266 ft | 410 kts | 226° |
| 2026-05-05 16:18 | 33.40178 | -15.96306 | 26656 ft | 407 kts | 226° |
| 2026-05-05 16:18 | 33.36160 | -16.01011 | 25501 ft | 401 kts | 226° |
| 2026-05-05 16:19 | 33.34174 | -16.03332 | 24918 ft | 398 kts | 226° |
| 2026-05-05 16:19 | 33.32171 | -16.05666 | 24344 ft | 395 kts | 226° |
| 2026-05-05 16:19 | 33.28253 | -16.10211 | 23139 ft | 390 kts | 226° |
| 2026-05-05 16:20 | 33.24397 | -16.14693 | 21955 ft | 384 kts | 226° |
| 2026-05-05 16:20 | 33.20595 | -16.19122 | 20847 ft | 379 kts | 226° |
| 2026-05-05 16:21 | 33.16842 | -16.23481 | 19776 ft | 374 kts | 226° |
| 2026-05-05 16:22 | 33.11280 | -16.29918 | 18277 ft | 368 kts | 226° |
| 2026-05-05 16:22 | 33.07632 | -16.34136 | 17238 ft | 364 kts | 226° |
| 2026-05-05 16:23 | 33.04016 | -16.38300 | 16259 ft | 359 kts | 225° |
| 2026-05-05 16:23 | 33.02225 | -16.40367 | 15808 ft | 357 kts | 226° |
| 2026-05-05 16:23 | 32.98686 | -16.44456 | 15085 ft | 353 kts | 226° |
| 2026-05-05 16:24 | 32.96931 | -16.46477 | 14669 ft | 350 kts | 225° |
| 2026-05-05 16:24 | 32.95193 | -16.48476 | 14360 ft | 343 kts | 225° |
| 2026-05-05 16:24 | 32.92299 | -16.51790 | 14152 ft | 323 kts | 225° |
| 2026-05-05 16:25 | 32.90823 | -16.53418 | 14047 ft | 314 kts | 224° |
| 2026-05-05 16:25 | 32.87652 | -16.56786 | 13641 ft | 300 kts | 223° |
| 2026-05-05 16:25 | 32.86107 | -16.58416 | 13378 ft | 294 kts | 223° |
| 2026-05-05 16:26 | 32.83899 | -16.62338 | 12715 ft | 285 kts | 261° |
| 2026-05-05 16:26 | 32.84638 | -16.66719 | 12413 ft | 271 kts | 303° |
| 2026-05-05 16:27 | 32.85928 | -16.68301 | 12123 ft | 271 kts | 324° |
| 2026-05-05 16:27 | 32.87674 | -16.69217 | 11813 ft | 275 kts | 347° |
| 2026-05-05 16:27 | 32.89581 | -16.69278 | 11502 ft | 277 kts | 9° |
| 2026-05-05 16:27 | 32.91374 | -16.68467 | 11180 ft | 278 kts | 32° |
| 2026-05-05 16:28 | 32.92887 | -16.67050 | 10864 ft | 278 kts | 40° |
| 2026-05-05 16:28 | 32.94328 | -16.65510 | 10547 ft | 277 kts | 42° |
| 2026-05-05 16:28 | 32.95726 | -16.63950 | 10250 ft | 275 kts | 43° |
| 2026-05-05 16:28 | 32.97113 | -16.62386 | 10132 ft | 274 kts | 43° |
| 2026-05-05 16:29 | 32.98481 | -16.60805 | 10133 ft | 275 kts | 49° |
| 2026-05-05 16:29 | 32.99440 | -16.58855 | 10139 ft | 275 kts | 71° |
| 2026-05-05 16:29 | 32.99725 | -16.56620 | 9979 ft | 272 kts | 94° |
| 2026-05-05 16:29 | 32.99291 | -16.54460 | 9681 ft | 268 kts | 116° |
| 2026-05-05 16:30 | 32.98229 | -16.52663 | 9324 ft | 265 kts | 138° |
| 2026-05-05 16:30 | 32.96713 | -16.51465 | 8975 ft | 262 kts | 159° |
| 2026-05-05 16:30 | 32.94961 | -16.50991 | 8623 ft | 258 kts | 180° |
| 2026-05-05 16:30 | 32.93206 | -16.51292 | 8356 ft | 255 kts | 200° |
| 2026-05-05 16:31 | 32.91655 | -16.52305 | 8345 ft | 254 kts | 218° |
| 2026-05-05 16:31 | 32.90292 | -16.53635 | 8037 ft | 253 kts | 221° |
| 2026-05-05 16:31 | 32.88994 | -16.55043 | 7693 ft | 253 kts | 223° |
| 2026-05-05 16:31 | 32.87711 | -16.56486 | 7361 ft | 252 kts | 224° |
| 2026-05-05 16:32 | 32.86443 | -16.57915 | 7008 ft | 251 kts | 223° |
| 2026-05-05 16:32 | 32.85189 | -16.59353 | 6688 ft | 250 kts | 229° |
| 2026-05-05 16:32 | 32.84375 | -16.61148 | 6355 ft | 249 kts | 256° |
| 2026-05-05 16:32 | 32.84342 | -16.63192 | 6011 ft | 249 kts | 283° |
| 2026-05-05 16:33 | 32.85099 | -16.65029 | 5654 ft | 250 kts | 310° |
| 2026-05-05 16:33 | 32.86515 | -16.66253 | 5280 ft | 251 kts | 339° |
| 2026-05-05 16:33 | 32.88224 | -16.66529 | 4966 ft | 249 kts | 8° |
| 2026-05-05 16:33 | 32.89832 | -16.65840 | 4630 ft | 246 kts | 36° |
| 2026-05-05 16:34 | 32.91104 | -16.64530 | 4275 ft | 245 kts | 44° |
| 2026-05-05 16:34 | 32.92366 | -16.63142 | 3929 ft | 243 kts | 44° |
| 2026-05-05 16:34 | 32.93603 | -16.61777 | 3619 ft | 241 kts | 45° |
| 2026-05-05 16:34 | 32.94828 | -16.60426 | 3333 ft | 239 kts | 44° |
| 2026-05-05 16:35 | 32.95951 | -16.58998 | 3059 ft | 234 kts | 60° |
| 2026-05-05 16:35 | 32.96510 | -16.57196 | 3025 ft | 232 kts | 84° |
| 2026-05-05 16:35 | 32.96359 | -16.55297 | 3025 ft | 232 kts | 109° |
| 2026-05-05 16:35 | 32.95520 | -16.53676 | 3031 ft | 233 kts | 134° |
| 2026-05-05 16:36 | 32.94163 | -16.52645 | 3031 ft | 235 kts | 159° |
| 2026-05-05 16:36 | 32.92542 | -16.52420 | 3029 ft | 238 kts | 186° |
| 2026-05-05 16:36 | 32.90982 | -16.53091 | 3030 ft | 242 kts | 212° |
| 2026-05-05 16:36 | 32.89686 | -16.54376 | 3036 ft | 244 kts | 220° |
| 2026-05-05 16:37 | 32.88429 | -16.55744 | 3030 ft | 244 kts | 221° |
| 2026-05-05 16:37 | 32.87192 | -16.57118 | 3016 ft | 244 kts | 222° |
| 2026-05-05 16:37 | 32.85954 | -16.58498 | 3018 ft | 244 kts | 222° |
| 2026-05-05 16:37 | 32.84711 | -16.59872 | 3025 ft | 244 kts | 221° |
| 2026-05-05 16:38 | 32.83452 | -16.61230 | 3076 ft | 244 kts | 220° |
| 2026-05-05 16:38 | 32.82153 | -16.62523 | 3135 ft | 243 kts | 213° |
| 2026-05-05 16:38 | 32.80681 | -16.63495 | 3205 ft | 241 kts | 201° |
| 2026-05-05 16:38 | 32.79103 | -16.64157 | 3292 ft | 241 kts | 198° |
| 2026-05-05 16:39 | 32.77526 | -16.64792 | 3230 ft | 238 kts | 198° |
| 2026-05-05 16:39 | 32.75985 | -16.65418 | 3091 ft | 230 kts | 198° |
| 2026-05-05 16:39 | 32.74503 | -16.66020 | 2953 ft | 222 kts | 198° |
| 2026-05-05 16:39 | 32.73075 | -16.66599 | 2823 ft | 212 kts | 197° |
| 2026-05-05 16:40 | 32.71697 | -16.67157 | 2627 ft | 208 kts | 197° |
| 2026-05-05 16:40 | 32.70343 | -16.67707 | 2276 ft | 204 kts | 197° |
| 2026-05-05 16:40 | 32.69002 | -16.68250 | 2013 ft | 204 kts | 197° |
| 2026-05-05 16:40 | 32.67659 | -16.68792 | 2008 ft | 200 kts | 197° |
| 2026-05-05 16:41 | 32.66378 | -16.69312 | 2001 ft | 184 kts | 197° |
| 2026-05-05 16:41 | 32.65211 | -16.69787 | 2006 ft | 171 kts | 197° |
| 2026-05-05 16:41 | 32.64098 | -16.70240 | 2018 ft | 167 kts | 198° |
| 2026-05-05 16:41 | 32.63059 | -16.70857 | 2012 ft | 168 kts | 212° |
| 2026-05-05 16:42 | 32.62172 | -16.71748 | 2008 ft | 169 kts | 225° |
| 2026-05-05 16:42 | 32.61482 | -16.72871 | 2028 ft | 169 kts | 240° |
| 2026-05-05 16:42 | 32.61038 | -16.74137 | 2013 ft | 160 kts | 253° |
| 2026-05-05 16:42 | 32.60854 | -16.75398 | 2007 ft | 152 kts | 266° |
| 2026-05-05 16:43 | 32.60896 | -16.76637 | 2012 ft | 150 kts | 278° |
| 2026-05-05 16:43 | 32.61154 | -16.77840 | 1871 ft | 151 kts | 291° |
| 2026-05-05 16:43 | 32.61677 | -16.78902 | 1667 ft | 148 kts | 311° |
| 2026-05-05 16:43 | 32.62156 | -16.79469 | 1540 ft | 147 kts | 322° |
| 2026-05-05 16:44 | 32.63035 | -16.80081 | 1344 ft | 145 kts | 340° |
| 2026-05-05 16:44 | 32.63996 | -16.80345 | 1146 ft | 139 kts | 360° |
| 2026-05-05 16:44 | 32.64960 | -16.80351 | 963 ft | 136 kts | 1° |
| 2026-05-05 16:44 | 32.65871 | -16.80347 | 774 ft | 131 kts | 2° |
| 2026-05-05 16:45 | 32.66795 | -16.80254 | 584 ft | 131 kts | 14° |
| 2026-05-05 16:45 | 32.67601 | -16.79877 | 564 ft | 120 kts | 29° |
| 2026-05-05 16:45 | 32.68248 | -16.79254 | 409 ft | 120 kts | 44° |
| 2026-05-05 16:45 | 32.68830 | -16.78570 | 231 ft | 115 kts | 41° |
| 2026-05-05 16:46 | 32.69327 | -16.77995 | 169 ft | 74 kts | 45° |
| 2026-05-05 16:46 | 32.69626 | -16.77639 | 177 ft | 53 kts | 45° |
| 2026-05-05 16:46 | 32.69847 | -16.77374 | 197 ft | 37 kts | 45° |
| 2026-05-05 16:46 | 32.69941 | -16.77206 | 198 ft | 16 kts | 125° |
| 2026-05-05 16:47 | 32.69863 | -16.77181 | 187 ft | 8 kts | 184° |
| 2026-05-05 16:47 | 32.69856 | -16.77182 | 183 ft | 2 kts | 188° |
| 2026-05-05 16:47 | 32.69802 | -16.77227 | 181 ft | 14 kts | 223° |
| 2026-05-05 16:47 | 32.69726 | -16.77317 | 172 ft | 17 kts | 225° |
| 2026-05-05 16:48 | 32.69647 | -16.77413 | 169 ft | 15 kts | 226° |
| 2026-05-05 16:48 | 32.69587 | -16.77488 | 169 ft | 11 kts | 226° |
| 2026-05-05 16:48 | 32.69539 | -16.77547 | 169 ft | 14 kts | 226° |
| 2026-05-05 16:48 | 32.69465 | -16.77639 | 169 ft | 14 kts | 226° |
| 2026-05-05 16:49 | 32.69408 | -16.77708 | 169 ft | 10 kts | 225° |
| 2026-05-05 16:49 | 32.69370 | -16.77755 | 169 ft | 6 kts | 227° |
| 2026-05-05 16:49 | 32.69347 | -16.77758 | 169 ft | 2 kts | 171° |
| 2026-05-05 16:49 | 32.69320 | -16.77739 | 169 ft | 4 kts | 142° |
| 2026-05-05 16:50 | 32.69310 | -16.77729 | 169 ft | 0 kts | 140° |
| 2026-05-05 16:50 | 32.69309 | -16.77728 | 169 ft | 0 kts | 140° |